sensor_id;sensor_type;location;lat;lon;timestamp;P1;durP1;ratioP1;P2;durP2;ratioP2
55316;SDS011;41178;48.956;8.130;2023-08-12T00:02:25;5.18;;;4.50;;
55316;SDS011;41178;48.956;8.130;2023-08-12T00:07:26;5.45;;;4.90;;
55316;SDS011;41178;48.956;8.130;2023-08-12T00:12:28;7.82;;;4.90;;
55316;SDS011;41178;48.956;8.130;2023-08-12T00:17:30;8.13;;;4.15;;
55316;SDS011;41178;48.956;8.130;2023-08-12T00:22:32;7.10;;;4.47;;
55316;SDS011;41178;48.956;8.130;2023-08-12T00:27:34;5.70;;;3.88;;
55316;SDS011;41178;48.956;8.130;2023-08-12T00:32:36;5.53;;;4.35;;
55316;SDS011;41178;48.956;8.130;2023-08-12T00:37:38;8.50;;;4.13;;
55316;SDS011;41178;48.956;8.130;2023-08-12T00:42:39;6.95;;;4.20;;
55316;SDS011;41178;48.956;8.130;2023-08-12T00:47:42;7.60;;;4.07;;
55316;SDS011;41178;48.956;8.130;2023-08-12T00:52:44;4.95;;;4.32;;
55316;SDS011;41178;48.956;8.130;2023-08-12T00:57:46;6.75;;;4.35;;
55316;SDS011;41178;48.956;8.130;2023-08-12T01:02:48;5.75;;;4.20;;
55316;SDS011;41178;48.956;8.130;2023-08-12T01:07:50;5.82;;;4.22;;
55316;SDS011;41178;48.956;8.130;2023-08-12T01:13:16;6.55;;;4.65;;
55316;SDS011;41178;48.956;8.130;2023-08-12T01:18:22;7.70;;;4.63;;
55316;SDS011;41178;48.956;8.130;2023-08-12T01:23:25;6.85;;;5.28;;
55316;SDS011;41178;48.956;8.130;2023-08-12T01:28:27;5.18;;;4.25;;
55316;SDS011;41178;48.956;8.130;2023-08-12T01:39:38;5.35;;;4.15;;
55316;SDS011;41178;48.956;8.130;2023-08-12T01:44:42;6.80;;;4.88;;
55316;SDS011;41178;48.956;8.130;2023-08-12T01:49:44;6.18;;;4.20;;
55316;SDS011;41178;48.956;8.130;2023-08-12T01:54:46;4.75;;;4.22;;
55316;SDS011;41178;48.956;8.130;2023-08-12T01:59:48;5.93;;;4.95;;
55316;SDS011;41178;48.956;8.130;2023-08-12T02:04:49;6.28;;;5.28;;
55316;SDS011;41178;48.956;8.130;2023-08-12T02:09:51;8.52;;;5.60;;
55316;SDS011;41178;48.956;8.130;2023-08-12T02:14:53;5.55;;;4.80;;
55316;SDS011;41178;48.956;8.130;2023-08-12T02:19:55;6.80;;;4.43;;
55316;SDS011;41178;48.956;8.130;2023-08-12T02:24:56;5.63;;;4.70;;
55316;SDS011;41178;48.956;8.130;2023-08-12T02:29:58;5.28;;;4.70;;
55316;SDS011;41178;48.956;8.130;2023-08-12T02:35:00;8.05;;;5.10;;
55316;SDS011;41178;48.956;8.130;2023-08-12T02:40:02;5.93;;;5.18;;
55316;SDS011;41178;48.956;8.130;2023-08-12T02:45:06;5.68;;;4.72;;
55316;SDS011;41178;48.956;8.130;2023-08-12T02:50:08;7.38;;;4.93;;
55316;SDS011;41178;48.956;8.130;2023-08-12T02:55:10;5.75;;;4.80;;
55316;SDS011;41178;48.956;8.130;2023-08-12T03:00:12;7.82;;;5.82;;
55316;SDS011;41178;48.956;8.130;2023-08-12T03:05:14;6.50;;;4.88;;
55316;SDS011;41178;48.956;8.130;2023-08-12T03:10:16;6.97;;;5.07;;
55316;SDS011;41178;48.956;8.130;2023-08-12T03:15:18;5.70;;;4.68;;
55316;SDS011;41178;48.956;8.130;2023-08-12T03:20:20;6.40;;;4.90;;
55316;SDS011;41178;48.956;8.130;2023-08-12T03:25:22;6.43;;;4.55;;
55316;SDS011;41178;48.956;8.130;2023-08-12T03:30:24;8.23;;;4.68;;
55316;SDS011;41178;48.956;8.130;2023-08-12T03:35:26;7.80;;;5.05;;
55316;SDS011;41178;48.956;8.130;2023-08-12T03:40:27;5.68;;;4.05;;
55316;SDS011;41178;48.956;8.130;2023-08-12T03:45:29;5.95;;;4.05;;
55316;SDS011;41178;48.956;8.130;2023-08-12T03:50:33;5.53;;;4.20;;
55316;SDS011;41178;48.956;8.130;2023-08-12T03:55:35;4.50;;;4.10;;
55316;SDS011;41178;48.956;8.130;2023-08-12T04:00:40;5.45;;;4.30;;
55316;SDS011;41178;48.956;8.130;2023-08-12T04:05:47;5.75;;;4.60;;
55316;SDS011;41178;48.956;8.130;2023-08-12T04:10:51;9.20;;;4.60;;
55316;SDS011;41178;48.956;8.130;2023-08-12T04:15:53;7.47;;;4.57;;
55316;SDS011;41178;48.956;8.130;2023-08-12T04:20:54;5.43;;;4.40;;
55316;SDS011;41178;48.956;8.130;2023-08-12T04:25:57;4.75;;;4.15;;
55316;SDS011;41178;48.956;8.130;2023-08-12T04:30:58;5.30;;;4.55;;
55316;SDS011;41178;48.956;8.130;2023-08-12T04:36:00;6.30;;;4.57;;
55316;SDS011;41178;48.956;8.130;2023-08-12T04:41:02;5.30;;;4.80;;
55316;SDS011;41178;48.956;8.130;2023-08-12T04:46:04;5.75;;;4.63;;
55316;SDS011;41178;48.956;8.130;2023-08-12T04:51:06;5.43;;;4.07;;
55316;SDS011;41178;48.956;8.130;2023-08-12T04:56:08;6.05;;;4.35;;
55316;SDS011;41178;48.956;8.130;2023-08-12T05:01:09;7.20;;;4.35;;
55316;SDS011;41178;48.956;8.130;2023-08-12T05:06:11;6.47;;;4.25;;
55316;SDS011;41178;48.956;8.130;2023-08-12T05:11:13;4.40;;;4.00;;
55316;SDS011;41178;48.956;8.130;2023-08-12T05:16:15;4.53;;;4.00;;
55316;SDS011;41178;48.956;8.130;2023-08-12T05:21:17;5.05;;;4.10;;
55316;SDS011;41178;48.956;8.130;2023-08-12T05:26:18;6.10;;;4.10;;
55316;SDS011;41178;48.956;8.130;2023-08-12T05:31:21;4.38;;;3.95;;
55316;SDS011;41178;48.956;8.130;2023-08-12T05:36:23;4.65;;;3.60;;
55316;SDS011;41178;48.956;8.130;2023-08-12T05:41:25;5.03;;;3.95;;
55316;SDS011;41178;48.956;8.130;2023-08-12T05:46:26;6.15;;;4.40;;
55316;SDS011;41178;48.956;8.130;2023-08-12T05:51:28;7.07;;;4.15;;
55316;SDS011;41178;48.956;8.130;2023-08-12T05:56:31;5.47;;;3.67;;
55316;SDS011;41178;48.956;8.130;2023-08-12T06:01:32;5.95;;;3.85;;
55316;SDS011;41178;48.956;8.130;2023-08-12T06:06:34;7.50;;;4.00;;
55316;SDS011;41178;48.956;8.130;2023-08-12T06:11:36;5.45;;;3.83;;
55316;SDS011;41178;48.956;8.130;2023-08-12T06:16:38;5.38;;;4.10;;
55316;SDS011;41178;48.956;8.130;2023-08-12T06:21:39;7.15;;;3.83;;
55316;SDS011;41178;48.956;8.130;2023-08-12T06:26:41;4.82;;;3.85;;
55316;SDS011;41178;48.956;8.130;2023-08-12T06:31:43;6.97;;;3.85;;
55316;SDS011;41178;48.956;8.130;2023-08-12T06:36:45;5.50;;;4.15;;
55316;SDS011;41178;48.956;8.130;2023-08-12T06:41:47;5.35;;;4.75;;
55316;SDS011;41178;48.956;8.130;2023-08-12T06:46:49;9.70;;;4.18;;
55316;SDS011;41178;48.956;8.130;2023-08-12T06:51:50;5.47;;;3.72;;
55316;SDS011;41178;48.956;8.130;2023-08-12T06:56:52;5.57;;;4.05;;
55316;SDS011;41178;48.956;8.130;2023-08-12T07:01:54;4.68;;;3.97;;
55316;SDS011;41178;48.956;8.130;2023-08-12T07:06:56;6.15;;;3.80;;
55316;SDS011;41178;48.956;8.130;2023-08-12T07:11:58;5.97;;;4.32;;
55316;SDS011;41178;48.956;8.130;2023-08-12T07:17:00;5.65;;;3.55;;
55316;SDS011;41178;48.956;8.130;2023-08-12T07:22:01;6.10;;;3.97;;
55316;SDS011;41178;48.956;8.130;2023-08-12T07:27:03;7.15;;;4.35;;
55316;SDS011;41178;48.956;8.130;2023-08-12T07:32:08;5.68;;;3.90;;
55316;SDS011;41178;48.956;8.130;2023-08-12T07:37:10;6.38;;;4.10;;
55316;SDS011;41178;48.956;8.130;2023-08-12T07:42:12;4.55;;;3.63;;
55316;SDS011;41178;48.956;8.130;2023-08-12T07:47:14;5.35;;;3.63;;
55316;SDS011;41178;48.956;8.130;2023-08-12T07:52:16;6.03;;;4.45;;
55316;SDS011;41178;48.956;8.130;2023-08-12T07:57:18;5.78;;;4.18;;
55316;SDS011;41178;48.956;8.130;2023-08-12T08:02:21;10.77;;;4.45;;
55316;SDS011;41178;48.956;8.130;2023-08-12T08:07:23;7.80;;;4.65;;
55316;SDS011;41178;48.956;8.130;2023-08-12T08:12:25;6.95;;;4.10;;
55316;SDS011;41178;48.956;8.130;2023-08-12T08:17:27;6.18;;;3.72;;
55316;SDS011;41178;48.956;8.130;2023-08-12T08:22:31;4.85;;;3.70;;
55316;SDS011;41178;48.956;8.130;2023-08-12T08:27:33;9.32;;;4.53;;
55316;SDS011;41178;48.956;8.130;2023-08-12T08:32:34;5.95;;;4.20;;
55316;SDS011;41178;48.956;8.130;2023-08-12T08:37:36;6.22;;;3.80;;
55316;SDS011;41178;48.956;8.130;2023-08-12T08:42:38;8.70;;;4.15;;
55316;SDS011;41178;48.956;8.130;2023-08-12T08:47:42;5.07;;;3.72;;
55316;SDS011;41178;48.956;8.130;2023-08-12T08:52:44;4.75;;;3.35;;
55316;SDS011;41178;48.956;8.130;2023-08-12T08:57:46;6.28;;;3.65;;
55316;SDS011;41178;48.956;8.130;2023-08-12T09:02:48;4.45;;;3.40;;
55316;SDS011;41178;48.956;8.130;2023-08-12T09:07:52;6.07;;;3.88;;
55316;SDS011;41178;48.956;8.130;2023-08-12T09:12:56;9.52;;;4.22;;
55316;SDS011;41178;48.956;8.130;2023-08-12T09:17:58;7.68;;;4.43;;
55316;SDS011;41178;48.956;8.130;2023-08-12T09:23:00;20.27;;;5.10;;
55316;SDS011;41178;48.956;8.130;2023-08-12T09:28:03;8.50;;;3.97;;
55316;SDS011;41178;48.956;8.130;2023-08-12T09:33:07;5.60;;;3.92;;
55316;SDS011;41178;48.956;8.130;2023-08-12T09:38:12;6.88;;;3.72;;
55316;SDS011;41178;48.956;8.130;2023-08-12T09:43:14;3.83;;;3.30;;
55316;SDS011;41178;48.956;8.130;2023-08-12T09:48:18;4.07;;;3.40;;
55316;SDS011;41178;48.956;8.130;2023-08-12T09:53:21;4.32;;;3.33;;
55316;SDS011;41178;48.956;8.130;2023-08-12T09:58:24;4.60;;;3.67;;
55316;SDS011;41178;48.956;8.130;2023-08-12T10:03:26;3.53;;;3.15;;
55316;SDS011;41178;48.956;8.130;2023-08-12T10:08:30;5.72;;;3.38;;
55316;SDS011;41178;48.956;8.130;2023-08-12T10:13:33;5.72;;;3.50;;
55316;SDS011;41178;48.956;8.130;2023-08-12T10:18:39;7.35;;;3.42;;
55316;SDS011;41178;48.956;8.130;2023-08-12T10:23:44;3.92;;;3.20;;
55316;SDS011;41178;48.956;8.130;2023-08-12T10:28:48;4.20;;;3.45;;
55316;SDS011;41178;48.956;8.130;2023-08-12T10:33:53;8.50;;;4.28;;
55316;SDS011;41178;48.956;8.130;2023-08-12T10:38:55;4.60;;;3.50;;
55316;SDS011;41178;48.956;8.130;2023-08-12T10:44:01;6.07;;;3.95;;
55316;SDS011;41178;48.956;8.130;2023-08-12T10:49:07;7.45;;;4.65;;
55316;SDS011;41178;48.956;8.130;2023-08-12T10:54:23;6.93;;;4.60;;
55316;SDS011;41178;48.956;8.130;2023-08-12T11:06:16;7.60;;;5.72;;
55316;SDS011;41178;48.956;8.130;2023-08-12T11:11:21;6.50;;;5.47;;
55316;SDS011;41178;48.956;8.130;2023-08-12T11:16:36;7.68;;;5.30;;
55316;SDS011;41178;48.956;8.130;2023-08-12T11:21:39;6.82;;;5.20;;
55316;SDS011;41178;48.956;8.130;2023-08-12T11:26:41;5.85;;;4.15;;
55316;SDS011;41178;48.956;8.130;2023-08-12T11:31:43;4.43;;;3.22;;
55316;SDS011;41178;48.956;8.130;2023-08-12T11:36:45;5.22;;;3.28;;
55316;SDS011;41178;48.956;8.130;2023-08-12T11:41:47;5.75;;;2.75;;
55316;SDS011;41178;48.956;8.130;2023-08-12T11:46:49;6.90;;;4.30;;
55316;SDS011;41178;48.956;8.130;2023-08-12T11:51:51;5.82;;;4.63;;
55316;SDS011;41178;48.956;8.130;2023-08-12T11:56:53;7.78;;;5.32;;
55316;SDS011;41178;48.956;8.130;2023-08-12T12:01:55;6.82;;;4.93;;
55316;SDS011;41178;48.956;8.130;2023-08-12T12:06:57;7.50;;;6.20;;
55316;SDS011;41178;48.956;8.130;2023-08-12T12:12:00;12.18;;;5.97;;
55316;SDS011;41178;48.956;8.130;2023-08-12T12:17:06;7.30;;;5.00;;
55316;SDS011;41178;48.956;8.130;2023-08-12T12:22:09;7.75;;;5.07;;
55316;SDS011;41178;48.956;8.130;2023-08-12T12:27:12;5.90;;;5.30;;
55316;SDS011;41178;48.956;8.130;2023-08-12T12:32:17;5.40;;;4.50;;
55316;SDS011;41178;48.956;8.130;2023-08-12T12:37:20;8.30;;;5.10;;
55316;SDS011;41178;48.956;8.130;2023-08-12T12:42:22;5.07;;;4.22;;
55316;SDS011;41178;48.956;8.130;2023-08-12T12:47:23;6.22;;;4.88;;
55316;SDS011;41178;48.956;8.130;2023-08-12T12:52:25;6.03;;;4.55;;
55316;SDS011;41178;48.956;8.130;2023-08-12T12:57:27;7.57;;;4.03;;
55316;SDS011;41178;48.956;8.130;2023-08-12T13:02:29;5.05;;;3.92;;
55316;SDS011;41178;48.956;8.130;2023-08-12T13:07:31;4.13;;;3.60;;
55316;SDS011;41178;48.956;8.130;2023-08-12T13:12:32;5.30;;;3.80;;
55316;SDS011;41178;48.956;8.130;2023-08-12T13:17:34;9.20;;;4.22;;
55316;SDS011;41178;48.956;8.130;2023-08-12T13:22:36;5.05;;;4.00;;
55316;SDS011;41178;48.956;8.130;2023-08-12T13:27:38;8.85;;;4.13;;
55316;SDS011;41178;48.956;8.130;2023-08-12T13:32:39;5.18;;;3.80;;
55316;SDS011;41178;48.956;8.130;2023-08-12T13:37:41;5.32;;;3.58;;
55316;SDS011;41178;48.956;8.130;2023-08-12T13:42:43;5.50;;;3.67;;
55316;SDS011;41178;48.956;8.130;2023-08-12T13:47:47;5.03;;;3.65;;
55316;SDS011;41178;48.956;8.130;2023-08-12T13:52:49;5.28;;;3.63;;
55316;SDS011;41178;48.956;8.130;2023-08-12T13:57:51;5.57;;;4.07;;
55316;SDS011;41178;48.956;8.130;2023-08-12T14:02:54;5.55;;;3.85;;
55316;SDS011;41178;48.956;8.130;2023-08-12T14:07:56;3.97;;;3.38;;
55316;SDS011;41178;48.956;8.130;2023-08-12T14:12:58;4.75;;;3.80;;
55316;SDS011;41178;48.956;8.130;2023-08-12T14:18:00;6.60;;;4.63;;
55316;SDS011;41178;48.956;8.130;2023-08-12T14:23:01;7.50;;;4.25;;
55316;SDS011;41178;48.956;8.130;2023-08-12T14:28:03;7.63;;;3.20;;
55316;SDS011;41178;48.956;8.130;2023-08-12T14:33:05;4.20;;;2.80;;
55316;SDS011;41178;48.956;8.130;2023-08-12T14:38:08;3.72;;;2.58;;
55316;SDS011;41178;48.956;8.130;2023-08-12T14:43:09;3.40;;;2.83;;
55316;SDS011;41178;48.956;8.130;2023-08-12T14:48:11;3.97;;;3.10;;
55316;SDS011;41178;48.956;8.130;2023-08-12T14:53:13;3.05;;;2.38;;
55316;SDS011;41178;48.956;8.130;2023-08-12T14:58:15;3.35;;;2.10;;
55316;SDS011;41178;48.956;8.130;2023-08-12T15:03:17;2.90;;;2.30;;
55316;SDS011;41178;48.956;8.130;2023-08-12T15:08:18;3.28;;;2.13;;
55316;SDS011;41178;48.956;8.130;2023-08-12T15:13:21;3.45;;;2.30;;
55316;SDS011;41178;48.956;8.130;2023-08-12T15:18:23;3.28;;;2.80;;
55316;SDS011;41178;48.956;8.130;2023-08-12T15:23:25;4.88;;;3.03;;
55316;SDS011;41178;48.956;8.130;2023-08-12T15:28:27;3.58;;;2.47;;
55316;SDS011;41178;48.956;8.130;2023-08-12T15:33:29;4.20;;;2.85;;
55316;SDS011;41178;48.956;8.130;2023-08-12T15:38:31;4.55;;;2.92;;
55316;SDS011;41178;48.956;8.130;2023-08-12T15:43:32;3.92;;;2.92;;
55316;SDS011;41178;48.956;8.130;2023-08-12T15:48:34;5.00;;;3.10;;
55316;SDS011;41178;48.956;8.130;2023-08-12T15:53:36;4.93;;;2.80;;
55316;SDS011;41178;48.956;8.130;2023-08-12T15:58:38;6.07;;;4.50;;
55316;SDS011;41178;48.956;8.130;2023-08-12T16:03:40;4.28;;;3.22;;
55316;SDS011;41178;48.956;8.130;2023-08-12T16:08:42;5.93;;;3.38;;
55316;SDS011;41178;48.956;8.130;2023-08-12T16:13:47;3.58;;;2.97;;
55316;SDS011;41178;48.956;8.130;2023-08-12T16:18:49;4.88;;;2.70;;
55316;SDS011;41178;48.956;8.130;2023-08-12T16:23:51;4.43;;;2.83;;
55316;SDS011;41178;48.956;8.130;2023-08-12T16:28:52;4.72;;;2.60;;
55316;SDS011;41178;48.956;8.130;2023-08-12T16:33:54;6.20;;;2.60;;
55316;SDS011;41178;48.956;8.130;2023-08-12T16:38:56;4.88;;;2.67;;
55316;SDS011;41178;48.956;8.130;2023-08-12T16:43:57;3.78;;;2.80;;
55316;SDS011;41178;48.956;8.130;2023-08-12T16:48:59;3.85;;;3.15;;
55316;SDS011;41178;48.956;8.130;2023-08-12T16:54:01;3.95;;;3.00;;
55316;SDS011;41178;48.956;8.130;2023-08-12T16:59:02;4.90;;;3.15;;
55316;SDS011;41178;48.956;8.130;2023-08-12T17:04:04;5.50;;;3.10;;
55316;SDS011;41178;48.956;8.130;2023-08-12T17:09:12;4.60;;;2.83;;
55316;SDS011;41178;48.956;8.130;2023-08-12T17:14:17;4.88;;;2.80;;
55316;SDS011;41178;48.956;8.130;2023-08-12T17:19:19;6.95;;;3.13;;
55316;SDS011;41178;48.956;8.130;2023-08-12T17:24:20;4.30;;;3.20;;
55316;SDS011;41178;48.956;8.130;2023-08-12T17:29:22;4.40;;;3.17;;
55316;SDS011;41178;48.956;8.130;2023-08-12T17:34:24;4.22;;;3.15;;
55316;SDS011;41178;48.956;8.130;2023-08-12T17:39:26;4.82;;;2.90;;
55316;SDS011;41178;48.956;8.130;2023-08-12T17:44:28;5.32;;;2.95;;
55316;SDS011;41178;48.956;8.130;2023-08-12T17:49:30;4.32;;;3.33;;
55316;SDS011;41178;48.956;8.130;2023-08-12T17:54:32;4.57;;;3.40;;
55316;SDS011;41178;48.956;8.130;2023-08-12T17:59:34;3.95;;;3.28;;
55316;SDS011;41178;48.956;8.130;2023-08-12T18:04:35;4.65;;;3.20;;
55316;SDS011;41178;48.956;8.130;2023-08-12T18:09:37;5.13;;;3.35;;
55316;SDS011;41178;48.956;8.130;2023-08-12T18:14:39;4.88;;;3.00;;
55316;SDS011;41178;48.956;8.130;2023-08-12T18:19:40;4.72;;;3.20;;
55316;SDS011;41178;48.956;8.130;2023-08-12T18:24:42;5.05;;;3.28;;
55316;SDS011;41178;48.956;8.130;2023-08-12T18:29:44;4.55;;;3.30;;
55316;SDS011;41178;48.956;8.130;2023-08-12T18:34:46;6.57;;;3.08;;
55316;SDS011;41178;48.956;8.130;2023-08-12T18:39:47;4.00;;;3.00;;
55316;SDS011;41178;48.956;8.130;2023-08-12T18:44:49;4.35;;;3.28;;
55316;SDS011;41178;48.956;8.130;2023-08-12T18:49:51;4.05;;;2.92;;
55316;SDS011;41178;48.956;8.130;2023-08-12T18:54:53;4.68;;;2.83;;
55316;SDS011;41178;48.956;8.130;2023-08-12T18:59:55;4.10;;;3.40;;
55316;SDS011;41178;48.956;8.130;2023-08-12T19:04:56;4.18;;;3.03;;
55316;SDS011;41178;48.956;8.130;2023-08-12T19:09:58;5.38;;;3.45;;
55316;SDS011;41178;48.956;8.130;2023-08-12T19:15:00;4.60;;;3.33;;
55316;SDS011;41178;48.956;8.130;2023-08-12T19:20:02;4.35;;;3.50;;
55316;SDS011;41178;48.956;8.130;2023-08-12T19:25:05;4.80;;;3.58;;
55316;SDS011;41178;48.956;8.130;2023-08-12T19:30:07;5.65;;;3.85;;
55316;SDS011;41178;48.956;8.130;2023-08-12T19:35:09;5.25;;;3.97;;
55316;SDS011;41178;48.956;8.130;2023-08-12T19:40:11;6.45;;;4.78;;
55316;SDS011;41178;48.956;8.130;2023-08-12T19:45:14;3.95;;;3.42;;
55316;SDS011;41178;48.956;8.130;2023-08-12T19:50:16;5.95;;;3.08;;
55316;SDS011;41178;48.956;8.130;2023-08-12T19:55:18;4.43;;;3.03;;
55316;SDS011;41178;48.956;8.130;2023-08-12T20:00:19;3.55;;;2.70;;
55316;SDS011;41178;48.956;8.130;2023-08-12T20:05:21;4.22;;;2.72;;
55316;SDS011;41178;48.956;8.130;2023-08-12T20:10:24;5.95;;;3.00;;
55316;SDS011;41178;48.956;8.130;2023-08-12T20:15:26;4.00;;;2.92;;
55316;SDS011;41178;48.956;8.130;2023-08-12T20:20:28;2.63;;;2.38;;
55316;SDS011;41178;48.956;8.130;2023-08-12T20:25:30;3.70;;;2.78;;
55316;SDS011;41178;48.956;8.130;2023-08-12T20:30:32;4.57;;;2.55;;
55316;SDS011;41178;48.956;8.130;2023-08-12T20:35:35;4.20;;;2.70;;
55316;SDS011;41178;48.956;8.130;2023-08-12T20:40:36;2.95;;;2.28;;
55316;SDS011;41178;48.956;8.130;2023-08-12T20:45:38;4.32;;;2.42;;
55316;SDS011;41178;48.956;8.130;2023-08-12T20:50:40;4.18;;;2.25;;
55316;SDS011;41178;48.956;8.130;2023-08-12T20:55:42;3.08;;;2.80;;
55316;SDS011;41178;48.956;8.130;2023-08-12T21:00:44;3.35;;;2.17;;
55316;SDS011;41178;48.956;8.130;2023-08-12T21:05:49;3.72;;;2.80;;
55316;SDS011;41178;48.956;8.130;2023-08-12T21:10:54;4.45;;;2.85;;
55316;SDS011;41178;48.956;8.130;2023-08-12T21:15:56;4.78;;;2.92;;
55316;SDS011;41178;48.956;8.130;2023-08-12T21:20:57;4.70;;;3.13;;
55316;SDS011;41178;48.956;8.130;2023-08-12T21:25:59;5.40;;;2.85;;
55316;SDS011;41178;48.956;8.130;2023-08-12T21:31:01;3.80;;;3.40;;
55316;SDS011;41178;48.956;8.130;2023-08-12T21:36:03;5.30;;;3.35;;
55316;SDS011;41178;48.956;8.130;2023-08-12T21:41:04;7.90;;;3.22;;
55316;SDS011;41178;48.956;8.130;2023-08-12T21:46:06;5.60;;;3.53;;
55316;SDS011;41178;48.956;8.130;2023-08-12T21:51:08;6.60;;;3.65;;
55316;SDS011;41178;48.956;8.130;2023-08-12T21:56:10;5.63;;;3.80;;
55316;SDS011;41178;48.956;8.130;2023-08-12T22:01:12;5.53;;;3.67;;
55316;SDS011;41178;48.956;8.130;2023-08-12T22:06:14;5.07;;;3.42;;
55316;SDS011;41178;48.956;8.130;2023-08-12T22:11:15;4.18;;;3.10;;
55316;SDS011;41178;48.956;8.130;2023-08-12T22:16:17;7.72;;;3.65;;
55316;SDS011;41178;48.956;8.130;2023-08-12T22:21:20;7.05;;;3.47;;
55316;SDS011;41178;48.956;8.130;2023-08-12T22:26:22;5.30;;;3.50;;
55316;SDS011;41178;48.956;8.130;2023-08-12T22:31:24;5.32;;;3.25;;
55316;SDS011;41178;48.956;8.130;2023-08-12T22:36:25;5.07;;;3.53;;
55316;SDS011;41178;48.956;8.130;2023-08-12T22:41:27;5.15;;;3.88;;
55316;SDS011;41178;48.956;8.130;2023-08-12T22:46:29;5.63;;;3.90;;
55316;SDS011;41178;48.956;8.130;2023-08-12T22:51:31;5.68;;;3.50;;
55316;SDS011;41178;48.956;8.130;2023-08-12T22:56:32;5.28;;;4.22;;
55316;SDS011;41178;48.956;8.130;2023-08-12T23:01:38;3.85;;;3.53;;
55316;SDS011;41178;48.956;8.130;2023-08-12T23:06:40;6.10;;;3.70;;
55316;SDS011;41178;48.956;8.130;2023-08-12T23:11:42;6.93;;;4.53;;
55316;SDS011;41178;48.956;8.130;2023-08-12T23:16:44;6.53;;;4.65;;
55316;SDS011;41178;48.956;8.130;2023-08-12T23:21:45;5.45;;;4.00;;
55316;SDS011;41178;48.956;8.130;2023-08-12T23:26:47;9.88;;;4.97;;
55316;SDS011;41178;48.956;8.130;2023-08-12T23:31:49;11.93;;;5.40;;
55316;SDS011;41178;48.956;8.130;2023-08-12T23:36:50;5.45;;;4.85;;
55316;SDS011;41178;48.956;8.130;2023-08-12T23:41:52;7.00;;;5.13;;
55316;SDS011;41178;48.956;8.130;2023-08-12T23:46:54;8.52;;;5.03;;
55316;SDS011;41178;48.956;8.130;2023-08-12T23:51:56;20.90;;;6.15;;
55316;SDS011;41178;48.956;8.130;2023-08-12T23:56:58;9.30;;;5.75;;
